Time;durP1;ratioP1;P1;durP2;ratioP2;P2;SDS_P1;SDS_P2;PMS_P1;PMS_P2;Temp;Humidity;BMP_temperature;BMP_pressure;BME280_temperature;BME280_humidity;BME280_pressure;Samples;Min_cycle;Max_cycle;Signal;HPM_P1;HPM_P2
2023/02/19 00:02:11;;;;;;;0.70;0.70;;;;;;;2.73;76.31;95711.97;4940504;28;20043;-61
2023/02/19 00:04:36;;;;;;;0.70;0.70;;;;;;;2.26;78.20;95721.81;4940539;28;20073;-63
2023/02/19 00:07:01;;;;;;;1.10;1.10;;;;;;;1.62;80.89;95711.00;4936745;28;20078;-61
2023/02/19 00:09:27;;;;;;;1.73;1.10;;;;;;;2.24;79.81;95705.31;4937751;28;20044;-63
2023/02/19 00:11:52;;;;;;;1.00;1.00;;;;;;;1.37;83.00;95714.66;4940895;28;20190;-61
2023/02/19 00:14:19;;;;;;;1.02;1.02;;;;;;;1.32;84.14;95701.88;4944072;29;20056;-63
2023/02/19 00:16:45;;;;;;;1.30;1.30;;;;;;;1.32;84.65;95696.66;4944943;28;20434;-64
2023/02/19 00:19:15;;;;;;;1.40;1.30;;;;;;;1.35;85.11;95704.28;4955529;28;20521;-61
2023/02/19 00:21:41;;;;;;;1.20;1.20;;;;;;;1.28;85.72;95694.38;4958199;28;20411;-62
2023/02/19 00:24:06;;;;;;;3.47;1.40;;;;;;;1.20;85.48;95689.72;4949706;28;20074;-62
2023/02/19 00:26:32;;;;;;;1.60;1.50;;;;;;;1.87;83.14;95695.94;4965529;28;20126;-62
2023/02/19 00:28:57;;;;;;;1.33;1.23;;;;;;;1.82;81.98;95708.63;4953762;28;20130;-62
2023/02/19 00:31:27;;;;;;;1.95;1.10;;;;;;;1.93;82.09;95688.53;4954764;28;20043;-64
2023/02/19 00:33:55;;;;;;;1.45;1.40;;;;;;;1.05;86.43;95675.97;4954246;28;20031;-64
2023/02/19 00:36:20;;;;;;;1.10;1.10;;;;;;;1.33;86.27;95689.63;4959833;28;20334;-63
2023/02/19 00:38:46;;;;;;;1.48;1.38;;;;;;;1.42;85.36;95685.44;4955850;28;20146;-63
2023/02/19 00:41:17;;;;;;;1.30;1.20;;;;;;;1.50;84.10;95688.31;4953304;28;20613;-62
2023/02/19 00:43:55;;;;;;;1.00;1.00;;;;;;;0.97;87.31;95687.06;4960585;28;20040;-64
2023/02/19 00:46:26;;;;;;;1.10;1.10;;;;;;;1.11;87.23;95684.22;4956309;28;20483;-63
2023/02/19 00:48:51;;;;;;;0.95;0.95;;;;;;;0.96;87.93;95682.78;4956895;28;20073;-63
2023/02/19 00:51:17;;;;;;;1.63;0.75;;;;;;;1.00;87.71;95692.06;4958319;28;20046;-64
2023/02/19 00:53:43;;;;;;;0.70;0.70;;;;;;;1.36;86.05;95681.50;4962552;28;20237;-62
2023/02/19 00:56:08;;;;;;;0.93;0.93;;;;;;;1.01;87.71;95682.41;4956840;28;20074;-63
2023/02/19 00:58:34;;;;;;;0.80;0.80;;;;;;;1.01;87.88;95682.41;4960329;28;20026;-62
2023/02/19 01:00:59;;;;;;;0.88;0.88;;;;;;;0.94;88.86;95684.66;4958232;28;20389;-63
2023/02/19 01:03:24;;;;;;;0.90;0.90;;;;;;;0.74;90.12;95681.75;4957013;28;20039;-61
2023/02/19 01:05:50;;;;;;;0.80;0.80;;;;;;;0.77;90.19;95668.44;4952980;28;20040;-62
2023/02/19 01:08:15;;;;;;;0.50;0.50;;;;;;;0.84;89.52;95681.91;4954690;28;20427;-61
2023/02/19 01:10:41;;;;;;;0.82;0.80;;;;;;;0.77;89.81;95673.66;4954429;28;20621;-63
2023/02/19 01:13:06;;;;;;;0.98;0.90;;;;;;;0.90;90.37;95670.97;4955291;28;20064;-62
2023/02/19 01:15:32;;;;;;;0.80;0.80;;;;;;;0.84;90.37;95671.41;4954713;28;20042;-61
2023/02/19 01:17:58;;;;;;;0.63;0.63;;;;;;;0.99;89.24;95672.06;4959988;28;20093;-61
2023/02/19 01:20:23;;;;;;;0.70;0.70;;;;;;;0.94;89.17;95668.94;4963835;28;20166;-63
2023/02/19 01:22:48;;;;;;;0.52;0.52;;;;;;;1.03;89.29;95664.78;4959225;28;20049;-62
2023/02/19 01:25:14;;;;;;;0.60;0.60;;;;;;;1.14;88.37;95671.81;4962924;28;20061;-64
2023/02/19 01:27:39;;;;;;;0.82;0.82;;;;;;;0.94;88.56;95667.16;4959525;28;20082;-60
2023/02/19 01:30:05;;;;;;;0.80;0.80;;;;;;;0.92;88.94;95676.91;4961252;28;20061;-63
2023/02/19 01:32:30;;;;;;;1.20;1.10;;;;;;;1.01;88.36;95675.38;4958456;28;20603;-62
2023/02/19 01:34:56;;;;;;;1.08;1.08;;;;;;;0.82;89.58;95657.59;4960789;28;20030;-64
2023/02/19 01:37:21;;;;;;;1.15;1.15;;;;;;;0.61;90.40;95670.53;4963024;28;20084;-63
2023/02/19 01:39:47;;;;;;;1.50;1.40;;;;;;;0.36;92.61;95672.31;4961955;28;20565;-62
2023/02/19 01:42:13;;;;;;;1.50;1.40;;;;;;;0.53;92.64;95677.16;4957176;28;20162;-64
2023/02/19 01:44:38;;;;;;;1.85;1.60;;;;;;;0.47;92.10;95672.38;4959372;28;20575;-63
2023/02/19 01:47:04;;;;;;;1.80;1.70;;;;;;;0.53;91.90;95666.69;4958851;28;20389;-62
2023/02/19 01:49:31;;;;;;;3.03;1.92;;;;;;;0.55;91.65;95677.88;4959465;28;20342;-63
2023/02/19 01:52:03;;;;;;;2.20;1.90;;;;;;;0.57;91.98;95660.28;4956825;28;20044;-61
2023/02/19 01:54:30;;;;;;;2.58;2.38;;;;;;;0.58;91.53;95661.94;4958344;28;20044;-63
2023/02/19 01:56:55;;;;;;;5.53;2.28;;;;;;;0.60;91.90;95672.31;4956746;28;20152;-61
2023/02/19 01:59:21;;;;;;;3.15;2.78;;;;;;;0.24;93.52;95664.41;4956969;28;20073;-62
2023/02/19 02:01:46;;;;;;;3.38;2.65;;;;;;;0.36;93.10;95665.31;4958768;28;20115;-64
2023/02/19 02:04:12;;;;;;;2.47;2.28;;;;;;;0.55;91.74;95659.53;4955658;28;20081;-64
2023/02/19 02:10:18;;;;;;;2.53;2.30;;;;;;;0.36;92.41;95657.44;4956417;28;20573;-64
2023/02/19 02:12:36;;;;;;;2.13;1.83;;;;;;;0.41;92.69;95651.88;4956173;28;20158;-65
2023/02/19 02:15:01;;;;;;;3.33;2.75;;;;;;;0.24;92.85;95653.94;4965003;28;20388;-65
2023/02/19 02:17:45;;;;;;;2.80;2.53;;;;;;;0.14;93.83;95652.97;4959813;28;20063;-64
2023/02/19 02:20:13;;;;;;;3.15;2.85;;;;;;;0.11;93.26;95648.78;4954456;28;20409;-64
2023/02/19 02:23:09;;;;;;;3.15;2.40;;;;;;;0.30;92.57;95644.78;4956789;28;20678;-64
2023/02/19 02:26:05;;;;;;;3.15;2.83;;;;;;;0.22;93.82;95634.91;4956942;28;20064;-63
2023/02/19 02:28:45;;;;;;;4.00;2.92;;;;;;;0.12;94.01;95644.38;4957101;28;20082;-63
2023/02/19 02:31:18;;;;;;;3.08;2.78;;;;;;;0.33;93.06;95634.94;4972387;28;20579;-64
2023/02/19 02:33:54;;;;;;;2.50;2.30;;;;;;;0.51;91.66;95642.38;4943756;28;20246;-63
2023/02/19 02:36:23;;;;;;;2.60;2.08;;;;;;;0.40;91.91;95643.19;4947834;28;20488;-64
2023/02/19 02:38:48;;;;;;;3.13;2.28;;;;;;;0.52;91.14;95637.97;4942375;28;20094;-64
2023/02/19 02:41:14;;;;;;;2.58;2.38;;;;;;;0.67;90.42;95647.31;4957295;28;20063;-64
2023/02/19 02:43:39;;;;;;;2.45;2.22;;;;;;;0.60;90.06;95646.09;4962410;28;20505;-64
2023/02/19 02:46:05;;;;;;;2.00;1.90;;;;;;;0.30;92.24;95645.63;4960073;28;20161;-64
2023/02/19 02:48:40;;;;;;;3.45;1.90;;;;;;;0.47;91.53;95626.06;4955500;28;20066;-64
2023/02/19 02:51:09;;;;;;;3.63;2.50;;;;;;;0.18;91.90;95670.13;4959881;28;20118;-65
2023/02/19 02:56:31;;;;;;;3.08;2.42;;;;;;;0.26;92.69;95636.34;4957084;28;20657;-63
2023/02/19 02:58:57;;;;;;;2.25;2.00;;;;;;;0.50;91.11;95621.53;4955793;28;20030;-63
2023/02/19 03:07:49;;;;;;;2.55;2.22;;;;;;;0.42;91.93;95616.88;4956102;28;20048;-64
2023/02/19 03:10:16;;;;;;;2.78;2.15;;;;;;;0.74;89.54;95621.47;4945534;28;20536;-64
2023/02/19 03:20:55;;;;;;;3.40;2.75;;;;;;;0.33;91.47;95611.38;4944499;28;20102;-64
2023/02/19 03:26:02;;;;;;;3.70;2.90;;;;;;;0.17;92.90;95616.09;4943694;28;20032;-63
2023/02/19 03:26:06;;;;;;;3.67;2.97;;;;;;;0.31;91.99;95623.72;4945584;28;20463;-63
2023/02/19 03:31:18;;;;;;;3.08;2.78;;;;;;;0.56;91.65;95624.53;4949412;28;20523;-64
2023/02/19 03:33:44;;;;;;;2.85;2.45;;;;;;;0.61;91.36;95610.25;4943252;28;20065;-64
2023/02/19 03:36:11;;;;;;;3.58;3.03;;;;;;;0.32;92.08;95633.28;4942202;28;20268;-63
2023/02/19 03:38:36;;;;;;;4.72;3.40;;;;;;;0.10;93.61;95620.91;4958026;28;20101;-63
2023/02/19 03:41:32;;;;;;;5.07;3.40;;;;;;;-0.08;95.89;95638.78;4953482;28;20507;-63
2023/02/19 03:44:10;;;;;;;3.80;2.38;;;;;;;0.15;100.00;95631.91;4962046;28;20356;-61
2023/02/19 03:47:02;;;;;;;7.60;2.30;;;;;;;0.26;97.27;95625.88;4941595;28;20035;-63
2023/02/19 03:50:05;;;;;;;2.17;1.98;;;;;;;0.31;95.63;95643.88;4944662;28;20075;-63
2023/02/19 03:52:51;;;;;;;4.40;3.08;;;;;;;0.12;95.61;95633.91;4959020;28;20067;-63
2023/02/19 03:55:21;;;;;;;4.63;2.85;;;;;;;0.42;94.10;95628.19;4955222;28;20748;-63
2023/02/19 03:58:02;;;;;;;3.75;2.65;;;;;;;0.16;95.34;95617.84;4940009;28;20417;-64
2023/02/19 04:00:39;;;;;;;3.78;2.72;;;;;;;0.52;94.06;95619.63;4942449;28;20065;-63
2023/02/19 04:03:10;;;;;;;6.00;3.13;;;;;;;0.56;92.70;95636.81;4963669;28;20166;-62
2023/02/19 04:05:41;;;;;;;3.67;3.00;;;;;;;0.68;90.90;95633.25;4945080;28;20551;-62
2023/02/19 04:08:10;;;;;;;4.88;2.58;;;;;;;0.89;89.86;95621.25;4954353;28;20148;-63
2023/02/19 04:10:36;;;;;;;4.28;3.17;;;;;;;0.46;91.61;95652.38;4940998;28;20455;-64
2023/02/19 04:13:05;;;;;;;4.13;2.92;;;;;;;0.53;91.59;95650.97;4956028;28;20069;-62
2023/02/19 04:15:31;;;;;;;6.85;3.63;;;;;;;0.16;92.50;95643.19;4941209;28;20503;-63
2023/02/19 04:18:03;;;;;;;3.75;3.10;;;;;;;0.30;92.14;95656.13;4952346;28;20081;-62
2023/02/19 04:20:29;;;;;;;6.35;3.70;;;;;;;0.34;92.57;95643.63;4937857;28;20074;-64
2023/02/19 04:22:55;;;;;;;6.10;4.05;;;;;;;0.40;92.29;95655.44;4957507;28;20093;-64
2023/02/19 04:25:20;;;;;;;7.22;4.43;;;;;;;0.53;91.91;95648.34;4953930;28;20087;-64
2023/02/19 04:27:46;;;;;;;10.57;4.85;;;;;;;0.63;91.38;95647.66;4927874;28;20090;-64
2023/02/19 04:30:12;;;;;;;14.23;5.60;;;;;;;0.09;94.12;95666.38;4940408;28;20092;-64
2023/02/19 04:32:37;;;;;;;6.20;4.60;;;;;;;0.14;94.29;95648.53;4956698;28;20087;-63
2023/02/19 04:35:02;;;;;;;7.00;4.47;;;;;;;-0.07;94.28;95656.16;4958367;28;20058;-63
2023/02/19 04:37:28;;;;;;;3.67;2.60;;;;;;;0.38;92.70;95659.97;4955563;28;20084;-63
2023/02/19 04:39:53;;;;;;;8.45;4.13;;;;;;;0.47;91.51;95660.13;4955358;28;20071;-63
2023/02/19 04:42:18;;;;;;;8.75;4.93;;;;;;;0.18;93.29;95691.06;4957594;28;20074;-63
2023/02/19 04:44:44;;;;;;;11.95;7.50;;;;;;;-0.03;93.93;95681.16;4955198;28;20531;-63
2023/02/19 04:47:09;;;;;;;15.30;9.20;;;;;;;-0.05;93.98;95665.59;4955757;28;20128;-62
2023/02/19 04:49:35;;;;;;;19.58;10.95;;;;;;;-0.10;94.46;95674.72;4954547;28;20080;-64
2023/02/19 04:52:00;;;;;;;21.13;12.77;;;;;;;-0.39;96.39;95693.31;4955501;28;20533;-63
2023/02/19 04:54:25;;;;;;;16.38;7.68;;;;;;;0.11;95.17;95685.44;4958830;28;20053;-63
2023/02/19 04:56:51;;;;;;;12.02;8.20;;;;;;;0.11;94.32;95689.84;4957970;28;20077;-64
2023/02/19 04:59:16;;;;;;;17.70;11.68;;;;;;;-0.09;94.53;95692.94;4958747;28;20285;-62
2023/02/19 05:01:42;;;;;;;16.08;10.70;;;;;;;-0.05;94.86;95706.63;4962238;28;20089;-63
2023/02/19 05:04:07;;;;;;;15.70;9.32;;;;;;;0.12;94.00;95699.34;4960773;28;20066;-63
2023/02/19 05:06:32;;;;;;;20.77;11.10;;;;;;;0.21;93.28;95696.09;4956079;28;20123;-62
2023/02/19 05:08:58;;;;;;;19.70;13.07;;;;;;;0.37;91.55;95719.38;4961309;28;20335;-63
2023/02/19 05:11:23;;;;;;;16.45;10.73;;;;;;;0.17;92.88;95708.53;4958394;28;20541;-63
2023/02/19 05:13:49;;;;;;;18.40;9.65;;;;;;;0.07;93.54;95700.53;4959889;28;20099;-64
2023/02/19 05:16:14;;;;;;;17.75;9.65;;;;;;;-0.21;95.15;95694.63;4960078;28;20155;-63
2023/02/19 05:18:40;;;;;;;15.23;8.63;;;;;;;0.15;93.49;95681.66;4960464;28;20538;-64
2023/02/19 05:21:06;;;;;;;13.70;8.60;;;;;;;0.25;92.65;95705.38;4958093;28;20091;-63
2023/02/19 05:23:31;;;;;;;15.52;8.77;;;;;;;0.08;93.50;95707.41;4962205;28;20067;-63
2023/02/19 05:25:57;;;;;;;15.90;11.40;;;;;;;-0.02;92.67;95710.81;4958386;28;20098;-63
2023/02/19 05:28:27;;;;;;;12.90;8.18;;;;;;;-0.04;93.23;95671.66;4962622;28;20328;-64
2023/02/19 05:30:53;;;;;;;17.23;8.90;;;;;;;-0.20;94.16;95711.19;4960316;28;20122;-63
2023/02/19 05:33:19;;;;;;;13.27;8.50;;;;;;;-0.61;94.75;95692.22;4959651;28;20098;-63
2023/02/19 05:35:46;;;;;;;11.30;6.88;;;;;;;-0.43;94.00;95716.25;4962335;28;20508;-63
2023/02/19 05:38:12;;;;;;;13.02;8.63;;;;;;;-0.46;93.36;95706.84;4962362;28;20082;-63
2023/02/19 05:40:37;;;;;;;10.65;6.93;;;;;;;-0.37;93.68;95721.03;4959838;28;20459;-63
2023/02/19 05:43:03;;;;;;;12.77;7.82;;;;;;;-0.22;92.66;95716.53;4960320;28;20067;-64
2023/02/19 05:45:28;;;;;;;17.95;9.52;;;;;;;-0.55;93.67;95724.94;4958710;28;20097;-64
2023/02/19 05:47:53;;;;;;;14.77;9.38;;;;;;;-0.54;94.52;95731.84;4958939;28;20478;-63
2023/02/19 05:50:19;;;;;;;12.98;7.20;;;;;;;-0.13;92.60;95728.09;4962428;28;20513;-64
2023/02/19 05:52:44;;;;;;;14.95;9.88;;;;;;;-0.27;92.04;95742.16;4957761;28;20100;-64
2023/02/19 05:55:10;;;;;;;14.52;9.73;;;;;;;-0.52;93.37;95750.88;4959866;28;20082;-64
2023/02/19 05:57:42;;;;;;;12.93;8.32;;;;;;;-0.56;94.07;95739.78;4956673;28;20131;-63
2023/02/19 06:00:14;;;;;;;12.88;7.85;;;;;;;-0.40;93.77;95738.75;4959531;28;20134;-64
2023/02/19 06:02:39;;;;;;;13.35;7.82;;;;;;;-0.34;93.26;95743.56;4963378;28;20596;-64
2023/02/19 06:05:05;;;;;;;14.02;8.25;;;;;;;-0.11;92.29;95744.56;4956703;28;20106;-63
2023/02/19 06:07:30;;;;;;;13.43;8.25;;;;;;;-0.11;90.34;95762.03;4958773;28;20142;-64
2023/02/19 06:09:56;;;;;;;14.15;7.45;;;;;;;-0.38;91.68;95773.47;4960397;28;20100;-64
2023/02/19 06:12:21;;;;;;;15.98;8.25;;;;;;;-0.40;92.47;95752.66;4954962;28;20100;-62
2023/02/19 06:14:47;;;;;;;14.88;8.55;;;;;;;-0.63;93.54;95756.84;4959029;28;20067;-62
2023/02/19 06:17:12;;;;;;;9.55;6.68;;;;;;;-0.33;93.24;95758.31;4957038;28;20114;-63
2023/02/19 06:19:37;;;;;;;12.38;8.00;;;;;;;-0.27;92.11;95763.09;4957748;28;20078;-63
2023/02/19 06:22:03;;;;;;;12.20;7.32;;;;;;;-0.27;92.29;95754.44;4959273;28;20081;-64
2023/02/19 06:24:29;;;;;;;12.80;8.20;;;;;;;-0.35;92.78;95760.19;4960017;28;20080;-63
2023/02/19 06:26:54;;;;;;;14.25;8.88;;;;;;;-0.49;93.72;95777.69;4956645;28;20646;-63
2023/02/19 06:29:20;;;;;;;12.82;7.20;;;;;;;-0.21;92.86;95780.16;4955961;28;20177;-63
2023/02/19 06:31:45;;;;;;;18.20;9.48;;;;;;;-0.39;93.50;95762.19;4959077;28;20072;-63
2023/02/19 06:34:10;;;;;;;13.23;8.57;;;;;;;-0.54;93.74;95789.38;4958933;28;20457;-63
2023/02/19 06:36:36;;;;;;;9.43;6.28;;;;;;;-0.37;93.42;95783.00;4956810;28;20091;-64
2023/02/19 06:39:02;;;;;;;13.70;8.50;;;;;;;-0.61;93.89;95799.44;4963561;28;20074;-63
2023/02/19 06:41:27;;;;;;;12.57;7.03;;;;;;;-0.33;93.13;95784.47;4959916;28;20102;-63
2023/02/19 06:43:53;;;;;;;15.10;9.75;;;;;;;-0.48;93.49;95784.56;4956464;28;20070;-63
2023/02/19 06:46:18;;;;;;;12.48;8.40;;;;;;;-0.39;93.14;95784.88;4960272;28;20600;-64
2023/02/19 06:48:44;;;;;;;12.73;7.30;;;;;;;0.00;91.52;95798.75;4955668;28;20553;-64
2023/02/19 06:51:13;;;;;;;11.80;6.95;;;;;;;0.03;91.07;95776.75;4959621;28;20158;-63
2023/02/19 06:53:39;;;;;;;15.57;7.90;;;;;;;-0.16;91.21;95782.47;4958207;28;20096;-63
2023/02/19 06:56:06;;;;;;;12.07;7.43;;;;;;;-0.11;91.77;95794.28;4954628;28;20075;-64
2023/02/19 06:58:31;;;;;;;13.90;9.73;;;;;;;-0.24;92.04;95817.03;4955183;28;20060;-63
2023/02/19 07:00:57;;;;;;;9.88;6.32;;;;;;;0.08;90.74;95806.91;4956860;28;20600;-64
2023/02/19 07:03:22;;;;;;;12.05;8.63;;;;;;;-0.09;91.13;95810.72;4962387;28;20055;-63
2023/02/19 07:05:48;;;;;;;10.82;7.05;;;;;;;-0.02;91.32;95802.44;4959208;28;20562;-64
2023/02/19 07:08:16;;;;;;;11.77;9.15;;;;;;;-0.32;93.06;95814.91;4956847;28;20104;-63
2023/02/19 07:10:41;;;;;;;15.35;9.65;;;;;;;-0.40;93.27;95818.06;4958768;28;20070;-64
2023/02/19 07:13:07;;;;;;;17.98;9.63;;;;;;;-0.23;92.85;95818.69;4957096;28;20169;-63
2023/02/19 07:15:32;;;;;;;13.55;9.48;;;;;;;-0.05;91.25;95816.59;4954795;28;20338;-64
2023/02/19 07:17:58;;;;;;;14.57;9.20;;;;;;;-0.13;91.38;95819.72;4954294;28;20090;-63
2023/02/19 07:20:23;;;;;;;10.07;7.35;;;;;;;0.00;91.04;95835.41;4955869;28;20671;-64
2023/02/19 07:22:49;;;;;;;13.05;8.05;;;;;;;0.11;89.96;95839.09;4958079;28;20063;-64
2023/02/19 07:25:14;;;;;;;15.43;10.20;;;;;;;-0.38;92.29;95833.66;4955011;28;20099;-64
2023/02/19 07:27:40;;;;;;;9.35;7.00;;;;;;;-0.20;91.76;95850.72;4961976;28;20120;-64
2023/02/19 07:30:05;;;;;;;15.85;9.65;;;;;;;-0.45;92.63;95846.31;4959018;28;20413;-64
2023/02/19 07:32:31;;;;;;;14.00;9.93;;;;;;;-0.25;90.89;95844.97;4956546;28;20092;-64
2023/02/19 07:34:56;;;;;;;15.05;9.02;;;;;;;-0.44;92.64;95864.53;4953644;28;20077;-64
2023/02/19 07:37:22;;;;;;;15.15;9.98;;;;;;;-0.52;92.53;95876.44;4954037;28;20089;-63
2023/02/19 07:39:47;;;;;;;11.68;7.65;;;;;;;-0.04;90.93;95852.28;4958027;28;20628;-64
2023/02/19 07:42:13;;;;;;;14.50;8.60;;;;;;;0.28;88.08;95864.09;4958430;28;20097;-64
2023/02/19 07:44:38;;;;;;;14.32;8.82;;;;;;;-0.24;90.84;95874.59;4956181;28;20138;-63
2023/02/19 07:47:04;;;;;;;14.23;9.98;;;;;;;-0.28;91.21;95883.56;4958533;28;20071;-63
2023/02/19 07:49:29;;;;;;;16.63;9.05;;;;;;;-0.09;90.22;95883.19;4962630;28;20098;-64
2023/02/19 07:51:54;;;;;;;12.50;8.38;;;;;;;-0.15;90.46;95873.13;4960184;28;20071;-63
2023/02/19 07:54:20;;;;;;;19.30;12.45;;;;;;;-0.40;91.46;95911.41;4953483;28;20074;-64
2023/02/19 07:56:45;;;;;;;16.95;10.60;;;;;;;-0.51;92.35;95899.06;4956816;28;20087;-63
2023/02/19 07:59:11;;;;;;;19.20;12.65;;;;;;;-0.38;91.50;95888.59;4958443;28;20407;-64
2023/02/19 08:04:20;;;;;;;15.10;9.07;;;;;;;-0.01;90.49;95896.59;4961748;28;20101;-63
2023/02/19 08:06:45;;;;;;;17.85;10.20;;;;;;;0.46;88.81;95896.00;4963382;28;20557;-63
2023/02/19 08:09:10;;;;;;;14.32;9.48;;;;;;;0.20;88.69;95917.84;4950638;28;20096;-63
2023/02/19 08:14:23;;;;;;;18.95;12.05;;;;;;;-0.10;88.77;95913.75;4958783;28;20573;-64
2023/02/19 08:16:49;;;;;;;11.43;8.23;;;;;;;0.05;88.92;95914.50;4962126;28;20076;-64
2023/02/19 08:19:15;;;;;;;13.27;8.90;;;;;;;0.17;88.39;95922.47;4948297;28;20069;-64
2023/02/19 08:21:40;;;;;;;12.48;7.18;;;;;;;0.15;88.17;95917.31;4948052;28;20097;-63
2023/02/19 08:24:06;;;;;;;14.80;7.95;;;;;;;0.06;88.32;95924.03;4961902;28;20065;-63
2023/02/19 08:26:32;;;;;;;13.98;8.85;;;;;;;0.12;88.21;95930.63;4962227;28;20121;-63
2023/02/19 08:28:57;;;;;;;14.23;10.18;;;;;;;-0.25;89.33;95925.25;4961546;28;20601;-63
2023/02/19 08:31:23;;;;;;;17.08;10.15;;;;;;;-0.07;88.47;95944.09;4952891;28;20064;-64
2023/02/19 08:33:48;;;;;;;16.80;9.65;;;;;;;-0.26;89.67;95928.81;4954116;28;20104;-63
2023/02/19 08:36:14;;;;;;;16.27;9.68;;;;;;;-0.10;89.58;95924.22;4964604;28;20120;-63
2023/02/19 08:38:39;;;;;;;14.40;7.45;;;;;;;-0.01;88.99;95938.47;4962457;28;20513;-63
2023/02/19 08:41:06;;;;;;;15.52;10.68;;;;;;;-0.46;90.95;95947.53;4965158;28;20560;-63
2023/02/19 08:43:31;;;;;;;16.73;10.00;;;;;;;-0.36;90.55;95957.38;4965202;28;20060;-64
2023/02/19 08:45:57;;;;;;;18.58;11.82;;;;;;;-0.35;90.38;95945.94;4965602;28;20100;-63
2023/02/19 08:48:22;;;;;;;12.45;7.65;;;;;;;0.09;89.17;95951.78;4965623;28;20377;-64
2023/02/19 08:50:59;;;;;;;12.50;8.90;;;;;;;-0.08;89.38;95952.91;4964255;28;20083;-63
2023/02/19 08:53:24;;;;;;;14.95;11.23;;;;;;;-0.34;89.43;95984.28;4958486;28;20177;-64
2023/02/19 08:55:50;;;;;;;15.38;9.93;;;;;;;-0.20;89.58;95978.13;4963897;28;20540;-63
2023/02/19 08:58:15;;;;;;;13.35;9.38;;;;;;;-0.16;89.15;95970.91;4961790;28;20512;-63
2023/02/19 09:00:41;;;;;;;13.32;6.95;;;;;;;0.38;87.18;95971.69;4963301;28;20096;-64
2023/02/19 09:03:06;;;;;;;12.90;7.82;;;;;;;0.44;85.88;95968.63;4961538;28;20068;-63
2023/02/19 09:05:32;;;;;;;11.88;7.68;;;;;;;0.46;85.47;95956.28;4958444;28;20441;-64
2023/02/19 09:07:57;;;;;;;15.85;8.90;;;;;;;0.07;86.49;95972.81;4958960;28;20123;-64
2023/02/19 09:10:22;;;;;;;12.32;8.05;;;;;;;0.29;86.10;95965.28;4964700;28;20066;-64
2023/02/19 09:12:48;;;;;;;14.80;9.57;;;;;;;-0.06;87.29;95961.50;4962979;28;20085;-64
2023/02/19 09:15:13;;;;;;;10.52;6.47;;;;;;;0.19;85.89;95975.56;4960377;28;20067;-64
2023/02/19 09:17:39;;;;;;;12.05;7.55;;;;;;;0.01;86.08;95961.94;4963901;28;20103;-64
2023/02/19 09:20:04;;;;;;;10.45;6.03;;;;;;;0.51;84.84;95961.22;4962417;28;20073;-64
2023/02/19 09:22:30;;;;;;;9.27;6.50;;;;;;;0.22;85.65;95977.97;4954599;28;20509;-65
2023/02/19 09:24:55;;;;;;;10.52;6.85;;;;;;;0.27;84.89;95975.06;4956799;28;20140;-64
2023/02/19 09:27:20;;;;;;;10.38;6.45;;;;;;;0.05;86.31;95979.97;4960526;28;20114;-65
2023/02/19 09:29:46;;;;;;;12.20;7.72;;;;;;;-0.07;86.90;95986.00;4956141;28;20079;-64
2023/02/19 09:32:11;;;;;;;12.07;6.88;;;;;;;-0.02;87.35;95977.84;4959777;28;20084;-64
2023/02/19 09:34:40;;;;;;;11.40;6.90;;;;;;;-0.13;87.48;95973.31;4959951;28;20062;-64
2023/02/19 09:37:05;;;;;;;15.95;6.78;;;;;;;-0.12;87.93;95982.84;4960208;28;20093;-63
2023/02/19 09:39:31;;;;;;;7.95;5.68;;;;;;;0.07;87.58;95979.81;4958784;28;20069;-64
2023/02/19 09:42:03;;;;;;;8.57;4.72;;;;;;;0.41;85.98;95984.59;4957275;28;20158;-64
2023/02/19 09:44:36;;;;;;;10.82;6.00;;;;;;;0.20;85.87;96003.41;4959205;28;20438;-64
2023/02/19 09:47:04;;;;;;;9.70;6.00;;;;;;;0.37;85.30;95983.94;4956080;28;20459;-64
2023/02/19 09:49:32;;;;;;;11.25;6.55;;;;;;;0.28;85.90;95998.50;4962219;28;20311;-63
2023/02/19 09:52:08;;;;;;;11.95;7.63;;;;;;;0.13;85.40;95997.75;4942663;28;20070;-64
2023/02/19 09:54:35;;;;;;;8.68;5.70;;;;;;;0.11;86.36;96014.53;4959688;28;20069;-64
2023/02/19 09:57:01;;;;;;;8.50;5.22;;;;;;;0.18;86.20;96006.13;4943793;28;20420;-64
2023/02/19 09:59:29;;;;;;;10.70;6.30;;;;;;;0.36;84.96;96012.84;4958913;28;20499;-64
2023/02/19 10:01:58;;;;;;;9.07;5.70;;;;;;;0.22;85.36;96017.25;4963599;28;20107;-64
2023/02/19 10:04:24;;;;;;;11.45;7.18;;;;;;;-0.07;87.33;96033.97;4960737;28;21118;-64
2023/02/19 10:06:49;;;;;;;11.40;5.35;;;;;;;0.27;87.63;96022.19;4961556;28;20080;-64
2023/02/19 10:09:22;;;;;;;9.80;5.35;;;;;;;0.92;84.83;96024.78;4948859;28;20089;-64
2023/02/19 10:11:48;;;;;;;14.02;9.20;;;;;;;0.01;87.22;96030.84;4963085;28;20621;-64
2023/02/19 10:14:41;;;;;;;12.50;8.93;;;;;;;-0.36;89.97;96034.09;4950156;28;20083;-64
2023/02/19 10:17:14;;;;;;;15.65;8.70;;;;;;;-0.21;89.37;96047.97;4950433;28;20143;-63
2023/02/19 10:19:39;;;;;;;12.23;7.10;;;;;;;0.12;88.23;96045.00;4940067;28;20057;-64
2023/02/19 10:22:04;;;;;;;13.73;7.18;;;;;;;0.17;87.99;96056.03;4961873;28;20636;-63
2023/02/19 10:24:30;;;;;;;14.45;8.52;;;;;;;0.31;87.01;96074.25;4944630;28;20120;-65
2023/02/19 10:26:55;;;;;;;10.93;5.82;;;;;;;0.66;86.89;96056.25;4959292;28;20182;-63
2023/02/19 10:29:21;;;;;;;12.63;7.55;;;;;;;0.28;86.18;96105.88;4961894;28;20712;-64
2023/02/19 10:31:46;;;;;;;15.23;10.13;;;;;;;0.02;87.38;96090.13;4960415;28;20081;-63
2023/02/19 10:34:20;;;;;;;14.52;8.38;;;;;;;0.48;84.97;96088.00;4960956;28;20573;-64
2023/02/19 10:36:47;;;;;;;14.70;9.40;;;;;;;0.31;85.22;96094.38;4959371;28;20138;-64
2023/02/19 10:39:22;;;;;;;11.85;7.82;;;;;;;0.25;85.73;96095.63;4942443;28;20057;-63
2023/02/19 10:41:50;;;;;;;12.23;6.78;;;;;;;0.37;85.40;96104.44;4959712;28;20569;-64
2023/02/19 10:44:28;;;;;;;14.48;7.57;;;;;;;0.62;84.29;96094.97;4959048;28;20356;-64
2023/02/19 10:46:54;;;;;;;13.48;7.18;;;;;;;0.77;82.37;96103.56;4958715;28;20550;-64
2023/02/19 10:49:34;;;;;;;14.82;9.25;;;;;;;0.54;82.11;96105.09;4943749;28;20117;-63
2023/02/19 10:52:04;;;;;;;10.48;5.70;;;;;;;0.98;80.47;96113.50;4959140;28;20169;-65
2023/02/19 10:54:34;;;;;;;8.18;5.70;;;;;;;1.02;81.83;96114.97;4942915;28;20429;-64
2023/02/19 10:57:14;;;;;;;11.82;7.25;;;;;;;1.20;79.80;96110.22;4958166;28;20546;-64
2023/02/19 10:59:50;;;;;;;15.45;8.07;;;;;;;1.15;79.02;96140.34;4958794;28;20059;-65
2023/02/19 11:02:17;;;;;;;14.13;8.23;;;;;;;0.73;81.04;96147.47;4958116;28;20413;-64
2023/02/19 11:05:05;;;;;;;12.25;6.80;;;;;;;0.62;81.25;96138.66;4960467;28;20085;-64
2023/02/19 11:07:31;;;;;;;14.50;7.70;;;;;;;0.47;82.76;96130.88;4956442;28;20560;-65
2023/02/19 11:09:56;;;;;;;12.38;8.82;;;;;;;0.80;81.73;96140.03;4958655;28;20097;-64
2023/02/19 11:12:27;;;;;;;12.50;7.80;;;;;;;0.82;81.78;96138.16;4939270;28;20082;-64
2023/02/19 11:14:52;;;;;;;12.10;7.68;;;;;;;0.43;83.72;96139.88;4954542;28;20050;-63
2023/02/19 11:17:27;;;;;;;15.80;9.30;;;;;;;0.15;85.14;96152.16;4960606;28;20180;-63
2023/02/19 11:19:54;;;;;;;13.13;9.40;;;;;;;-0.10;86.83;96164.22;4955340;28;20102;-63
2023/02/19 11:22:32;;;;;;;18.23;9.07;;;;;;;0.01;86.89;96159.16;4956726;28;20492;-64
2023/02/19 11:25:06;;;;;;;17.15;10.40;;;;;;;-0.17;87.93;96148.03;4958811;28;20085;-64
2023/02/19 11:27:32;;;;;;;15.57;9.82;;;;;;;-0.15;88.83;96153.19;4958435;28;20094;-64
2023/02/19 11:30:29;;;;;;;15.82;9.98;;;;;;;0.08;88.14;96144.69;4958094;28;20076;-63
2023/02/19 11:33:12;;;;;;;17.67;11.15;;;;;;;-0.04;87.52;96155.97;4960148;28;20113;-63
2023/02/19 11:35:37;;;;;;;12.77;9.05;;;;;;;-0.10;88.55;96156.38;4958446;28;20052;-62
2023/02/19 11:38:04;;;;;;;11.35;7.20;;;;;;;0.20;87.62;96150.06;4957602;28;20129;-63
2023/02/19 11:40:41;;;;;;;11.82;8.55;;;;;;;-0.21;89.31;96151.78;4936588;28;20555;-63
2023/02/19 11:43:16;;;;;;;11.68;7.40;;;;;;;-0.10;89.21;96161.59;4938079;28;20488;-64
2023/02/19 11:46:01;;;;;;;12.13;7.50;;;;;;;0.57;87.23;96155.53;4971884;28;20092;-64
2023/02/19 11:48:43;;;;;;;8.93;5.95;;;;;;;0.93;85.07;96152.31;4956859;28;20105;-63
2023/02/19 11:51:24;;;;;;;10.88;4.70;;;;;;;1.16;83.75;96142.88;4962253;28;20049;-63
2023/02/19 11:54:02;;;;;;;9.40;4.75;;;;;;;1.01;84.43;96150.00;4959403;28;20554;-64
2023/02/19 11:56:37;;;;;;;8.35;4.47;;;;;;;1.32;82.91;96132.16;4939442;28;20073;-63
2023/02/19 11:59:06;;;;;;;10.23;5.80;;;;;;;1.18;82.14;96146.22;4937923;28;20448;-65
2023/02/19 12:01:34;;;;;;;;;;;;;;;1.23;82.96;96149.38;4959848;28;20099;-64
2023/02/19 12:04:37;;;;;;;8.88;4.22;;;;;;;1.16;82.93;96148.09;4958481;28;19939;-63
2023/02/19 12:07:20;;;;;;;9.10;5.32;;;;;;;1.01;83.72;96150.00;4956882;28;20062;-62
2023/02/19 12:10:11;;;;;;;9.05;5.25;;;;;;;0.30;86.01;96145.06;4954917;28;20149;-62